sensor_id;sensor_type;location;lat;lon;timestamp;P1;durP1;ratioP1;P2;durP2;ratioP2
7571;SDS011;3827;49.928;8.548;2023-02-28T00:01:08;2.88;;;1.92;;
7571;SDS011;3827;49.928;8.548;2023-02-28T00:03:37;2.28;;;1.95;;
7571;SDS011;3827;49.928;8.548;2023-02-28T00:06:04;1.88;;;1.77;;
7571;SDS011;3827;49.928;8.548;2023-02-28T00:08:33;2.25;;;1.80;;
7571;SDS011;3827;49.928;8.548;2023-02-28T00:11:01;2.33;;;2.13;;
7571;SDS011;3827;49.928;8.548;2023-02-28T00:13:28;2.30;;;2.10;;
7571;SDS011;3827;49.928;8.548;2023-02-28T00:15:59;2.33;;;2.13;;
7571;SDS011;3827;49.928;8.548;2023-02-28T00:18:26;2.15;;;1.95;;
7571;SDS011;3827;49.928;8.548;2023-02-28T00:20:54;2.08;;;1.88;;
7571;SDS011;3827;49.928;8.548;2023-02-28T00:23:21;2.08;;;1.88;;
7571;SDS011;3827;49.928;8.548;2023-02-28T00:25:48;2.42;;;1.80;;
7571;SDS011;3827;49.928;8.548;2023-02-28T00:28:16;2.05;;;1.85;;
7571;SDS011;3827;49.928;8.548;2023-02-28T00:30:42;1.80;;;1.70;;
7571;SDS011;3827;49.928;8.548;2023-02-28T00:33:09;2.10;;;2.00;;
7571;SDS011;3827;49.928;8.548;2023-02-28T00:35:36;1.98;;;1.80;;
7571;SDS011;3827;49.928;8.548;2023-02-28T00:38:05;1.90;;;1.80;;
7571;SDS011;3827;49.928;8.548;2023-02-28T00:40:32;2.00;;;1.90;;
7571;SDS011;3827;49.928;8.548;2023-02-28T00:42:58;2.08;;;1.88;;
7571;SDS011;3827;49.928;8.548;2023-02-28T00:45:25;2.28;;;1.80;;
7571;SDS011;3827;49.928;8.548;2023-02-28T00:47:52;2.42;;;1.90;;
7571;SDS011;3827;49.928;8.548;2023-02-28T00:50:19;1.90;;;1.80;;
7571;SDS011;3827;49.928;8.548;2023-02-28T00:52:46;1.80;;;1.70;;
7571;SDS011;3827;49.928;8.548;2023-02-28T00:55:14;2.25;;;2.00;;
7571;SDS011;3827;49.928;8.548;2023-02-28T00:57:41;2.72;;;2.15;;
7571;SDS011;3827;49.928;8.548;2023-02-28T01:00:09;2.30;;;2.10;;
7571;SDS011;3827;49.928;8.548;2023-02-28T01:02:36;2.00;;;1.80;;
7571;SDS011;3827;49.928;8.548;2023-02-28T01:05:03;4.78;;;2.38;;
7571;SDS011;3827;49.928;8.548;2023-02-28T01:07:31;2.50;;;2.05;;
7571;SDS011;3827;49.928;8.548;2023-02-28T01:09:57;2.17;;;2.00;;
7571;SDS011;3827;49.928;8.548;2023-02-28T01:12:25;2.30;;;2.10;;
7571;SDS011;3827;49.928;8.548;2023-02-28T01:14:52;3.00;;;2.00;;
7571;SDS011;3827;49.928;8.548;2023-02-28T01:17:19;1.85;;;1.75;;
7571;SDS011;3827;49.928;8.548;2023-02-28T01:19:46;3.03;;;2.30;;
7571;SDS011;3827;49.928;8.548;2023-02-28T01:22:13;2.22;;;2.03;;
7571;SDS011;3827;49.928;8.548;2023-02-28T01:24:40;2.38;;;2.17;;
7571;SDS011;3827;49.928;8.548;2023-02-28T01:27:06;2.53;;;2.33;;
7571;SDS011;3827;49.928;8.548;2023-02-28T01:29:34;2.30;;;2.10;;
7571;SDS011;3827;49.928;8.548;2023-02-28T01:32:01;2.50;;;2.30;;
7571;SDS011;3827;49.928;8.548;2023-02-28T01:34:28;2.58;;;2.38;;
7571;SDS011;3827;49.928;8.548;2023-02-28T01:36:55;2.63;;;2.43;;
7571;SDS011;3827;49.928;8.548;2023-02-28T01:39:23;2.50;;;2.30;;
7571;SDS011;3827;49.928;8.548;2023-02-28T01:41:50;2.40;;;2.20;;
7571;SDS011;3827;49.928;8.548;2023-02-28T01:47:28;2.85;;;2.65;;
7571;SDS011;3827;49.928;8.548;2023-02-28T01:49:58;2.78;;;2.58;;
7571;SDS011;3827;49.928;8.548;2023-02-28T01:52:26;2.80;;;2.60;;
7571;SDS011;3827;49.928;8.548;2023-02-28T01:54:54;2.70;;;2.50;;
7571;SDS011;3827;49.928;8.548;2023-02-28T01:57:25;3.05;;;2.75;;
7571;SDS011;3827;49.928;8.548;2023-02-28T01:59:56;2.90;;;2.60;;
7571;SDS011;3827;49.928;8.548;2023-02-28T02:02:27;2.70;;;2.50;;
7571;SDS011;3827;49.928;8.548;2023-02-28T02:04:55;3.00;;;2.80;;
7571;SDS011;3827;49.928;8.548;2023-02-28T02:07:27;2.90;;;2.70;;
7571;SDS011;3827;49.928;8.548;2023-02-28T02:10:01;3.55;;;3.25;;
7571;SDS011;3827;49.928;8.548;2023-02-28T02:12:32;3.03;;;2.83;;
7571;SDS011;3827;49.928;8.548;2023-02-28T02:15:11;3.37;;;3.07;;
7571;SDS011;3827;49.928;8.548;2023-02-28T02:17:44;3.10;;;2.90;;
7571;SDS011;3827;49.928;8.548;2023-02-28T02:26:21;3.65;;;3.05;;
7571;SDS011;3827;49.928;8.548;2023-02-28T02:29:19;3.60;;;3.30;;
7571;SDS011;3827;49.928;8.548;2023-02-28T02:32:16;3.42;;;3.13;;
7571;SDS011;3827;49.928;8.548;2023-02-28T02:35:13;3.37;;;3.10;;
7571;SDS011;3827;49.928;8.548;2023-02-28T02:37:44;3.35;;;3.10;;
7571;SDS011;3827;49.928;8.548;2023-02-28T02:40:16;3.50;;;3.20;;
7571;SDS011;3827;49.928;8.548;2023-02-28T02:42:47;3.45;;;3.22;;
7571;SDS011;3827;49.928;8.548;2023-02-28T02:45:19;3.92;;;3.63;;
7571;SDS011;3827;49.928;8.548;2023-02-28T02:47:52;4.57;;;3.67;;
7571;SDS011;3827;49.928;8.548;2023-02-28T02:50:23;3.80;;;3.50;;
7571;SDS011;3827;49.928;8.548;2023-02-28T02:52:58;3.88;;;3.65;;
7571;SDS011;3827;49.928;8.548;2023-02-28T02:55:27;3.92;;;3.63;;
7571;SDS011;3827;49.928;8.548;2023-02-28T02:57:57;4.10;;;3.70;;
7571;SDS011;3827;49.928;8.548;2023-02-28T03:00:26;3.80;;;3.58;;
7571;SDS011;3827;49.928;8.548;2023-02-28T03:02:56;4.15;;;3.85;;
7571;SDS011;3827;49.928;8.548;2023-02-28T03:05:26;4.40;;;4.05;;
7571;SDS011;3827;49.928;8.548;2023-02-28T03:07:55;4.50;;;4.10;;
7571;SDS011;3827;49.928;8.548;2023-02-28T03:10:26;4.63;;;4.23;;
7571;SDS011;3827;49.928;8.548;2023-02-28T03:13:02;4.30;;;4.00;;
7571;SDS011;3827;49.928;8.548;2023-02-28T03:15:37;4.43;;;4.07;;
7571;SDS011;3827;49.928;8.548;2023-02-28T03:18:12;4.40;;;4.10;;
7571;SDS011;3827;49.928;8.548;2023-02-28T03:20:51;4.68;;;4.28;;
7571;SDS011;3827;49.928;8.548;2023-02-28T03:23:26;4.80;;;4.40;;
7571;SDS011;3827;49.928;8.548;2023-02-28T03:25:59;5.47;;;4.97;;
7571;SDS011;3827;49.928;8.548;2023-02-28T03:28:31;5.13;;;4.73;;
7571;SDS011;3827;49.928;8.548;2023-02-28T03:31:07;4.53;;;4.13;;
7571;SDS011;3827;49.928;8.548;2023-02-28T03:33:42;4.40;;;4.00;;
7571;SDS011;3827;49.928;8.548;2023-02-28T03:36:21;4.35;;;4.00;;
7571;SDS011;3827;49.928;8.548;2023-02-28T03:38:51;4.00;;;3.70;;
7571;SDS011;3827;49.928;8.548;2023-02-28T03:41:22;4.20;;;3.90;;
7571;SDS011;3827;49.928;8.548;2023-02-28T03:43:53;4.22;;;3.90;;
7571;SDS011;3827;49.928;8.548;2023-02-28T03:46:23;4.00;;;3.70;;
7571;SDS011;3827;49.928;8.548;2023-02-28T03:48:53;4.47;;;4.07;;
7571;SDS011;3827;49.928;8.548;2023-02-28T03:51:28;4.32;;;4.00;;
7571;SDS011;3827;49.928;8.548;2023-02-28T03:53:57;4.25;;;3.95;;
7571;SDS011;3827;49.928;8.548;2023-02-28T03:56:29;4.45;;;4.05;;
7571;SDS011;3827;49.928;8.548;2023-02-28T03:59:01;4.38;;;3.97;;
7571;SDS011;3827;49.928;8.548;2023-02-28T04:01:33;4.15;;;3.85;;
7571;SDS011;3827;49.928;8.548;2023-02-28T04:04:03;5.10;;;4.70;;
7571;SDS011;3827;49.928;8.548;2023-02-28T04:06:32;6.32;;;5.20;;
7571;SDS011;3827;49.928;8.548;2023-02-28T04:09:00;7.20;;;5.93;;
7571;SDS011;3827;49.928;8.548;2023-02-28T04:11:29;7.68;;;5.72;;
7571;SDS011;3827;49.928;8.548;2023-02-28T04:13:59;6.45;;;5.80;;
7571;SDS011;3827;49.928;8.548;2023-02-28T04:16:27;5.82;;;5.15;;
7571;SDS011;3827;49.928;8.548;2023-02-28T04:18:53;5.93;;;5.40;;
7571;SDS011;3827;49.928;8.548;2023-02-28T04:21:26;5.57;;;5.07;;
7571;SDS011;3827;49.928;8.548;2023-02-28T04:23:55;4.78;;;4.38;;
7571;SDS011;3827;49.928;8.548;2023-02-28T04:26:25;5.30;;;4.90;;
7571;SDS011;3827;49.928;8.548;2023-02-28T04:28:54;5.07;;;4.68;;
7571;SDS011;3827;49.928;8.548;2023-02-28T04:31:21;8.65;;;7.00;;
7571;SDS011;3827;49.928;8.548;2023-02-28T04:33:48;7.82;;;7.03;;
7571;SDS011;3827;49.928;8.548;2023-02-28T04:36:15;5.82;;;5.32;;
7571;SDS011;3827;49.928;8.548;2023-02-28T04:38:42;5.10;;;4.70;;
7571;SDS011;3827;49.928;8.548;2023-02-28T04:41:11;5.07;;;4.68;;
7571;SDS011;3827;49.928;8.548;2023-02-28T04:43:38;4.80;;;4.40;;
7571;SDS011;3827;49.928;8.548;2023-02-28T04:46:05;4.57;;;4.15;;
7571;SDS011;3827;49.928;8.548;2023-02-28T04:48:33;4.13;;;3.83;;
7571;SDS011;3827;49.928;8.548;2023-02-28T04:51:01;4.28;;;3.97;;
7571;SDS011;3827;49.928;8.548;2023-02-28T04:53:28;4.20;;;3.90;;
7571;SDS011;3827;49.928;8.548;2023-02-28T04:55:55;4.60;;;4.20;;
7571;SDS011;3827;49.928;8.548;2023-02-28T04:58:24;4.60;;;4.20;;
7571;SDS011;3827;49.928;8.548;2023-02-28T05:00:51;4.00;;;3.70;;
7571;SDS011;3827;49.928;8.548;2023-02-28T05:03:18;4.40;;;4.00;;
7571;SDS011;3827;49.928;8.548;2023-02-28T05:05:47;3.72;;;3.47;;
7571;SDS011;3827;49.928;8.548;2023-02-28T05:08:14;4.18;;;3.80;;
7571;SDS011;3827;49.928;8.548;2023-02-28T05:10:40;3.45;;;3.15;;
7571;SDS011;3827;49.928;8.548;2023-02-28T05:13:08;4.10;;;3.55;;
7571;SDS011;3827;49.928;8.548;2023-02-28T05:15:38;3.65;;;3.35;;
7571;SDS011;3827;49.928;8.548;2023-02-28T05:18:05;4.38;;;3.30;;
7571;SDS011;3827;49.928;8.548;2023-02-28T05:20:34;3.42;;;3.13;;
7571;SDS011;3827;49.928;8.548;2023-02-28T05:23:01;3.30;;;3.10;;
7571;SDS011;3827;49.928;8.548;2023-02-28T05:25:28;3.63;;;3.33;;
7571;SDS011;3827;49.928;8.548;2023-02-28T05:27:55;3.80;;;3.50;;
7571;SDS011;3827;49.928;8.548;2023-02-28T05:30:22;7.47;;;6.78;;
7571;SDS011;3827;49.928;8.548;2023-02-28T05:32:51;8.15;;;7.40;;
7571;SDS011;3827;49.928;8.548;2023-02-28T05:35:18;6.10;;;5.55;;
7571;SDS011;3827;49.928;8.548;2023-02-28T05:37:50;4.97;;;3.92;;
7571;SDS011;3827;49.928;8.548;2023-02-28T05:40:20;4.25;;;3.92;;
7571;SDS011;3827;49.928;8.548;2023-02-28T05:42:47;4.07;;;3.67;;
7571;SDS011;3827;49.928;8.548;2023-02-28T05:45:16;3.90;;;3.60;;
7571;SDS011;3827;49.928;8.548;2023-02-28T05:47:43;3.92;;;3.63;;
7571;SDS011;3827;49.928;8.548;2023-02-28T05:50:11;3.60;;;3.40;;
7571;SDS011;3827;49.928;8.548;2023-02-28T05:52:38;3.92;;;3.63;;
7571;SDS011;3827;49.928;8.548;2023-02-28T05:55:05;3.40;;;3.20;;
7571;SDS011;3827;49.928;8.548;2023-02-28T05:57:33;3.63;;;3.40;;
7571;SDS011;3827;49.928;8.548;2023-02-28T05:59:59;4.10;;;3.72;;
7571;SDS011;3827;49.928;8.548;2023-02-28T06:02:27;3.60;;;3.35;;
7571;SDS011;3827;49.928;8.548;2023-02-28T06:04:54;3.80;;;3.50;;
7571;SDS011;3827;49.928;8.548;2023-02-28T06:07:22;3.80;;;3.50;;
7571;SDS011;3827;49.928;8.548;2023-02-28T06:09:48;3.30;;;3.05;;
7571;SDS011;3827;49.928;8.548;2023-02-28T06:12:15;3.17;;;2.97;;
7571;SDS011;3827;49.928;8.548;2023-02-28T06:14:42;3.67;;;3.40;;
7571;SDS011;3827;49.928;8.548;2023-02-28T06:17:09;3.90;;;3.50;;
7571;SDS011;3827;49.928;8.548;2023-02-28T06:19:36;3.90;;;3.50;;
7571;SDS011;3827;49.928;8.548;2023-02-28T06:22:03;4.03;;;3.72;;
7571;SDS011;3827;49.928;8.548;2023-02-28T06:24:32;3.65;;;3.35;;
7571;SDS011;3827;49.928;8.548;2023-02-28T06:26:59;3.65;;;3.35;;
7571;SDS011;3827;49.928;8.548;2023-02-28T06:29:29;3.42;;;3.13;;
7571;SDS011;3827;49.928;8.548;2023-02-28T06:31:56;3.45;;;3.25;;
7571;SDS011;3827;49.928;8.548;2023-02-28T06:34:23;5.15;;;4.68;;
7571;SDS011;3827;49.928;8.548;2023-02-28T06:36:51;3.67;;;3.38;;
7571;SDS011;3827;49.928;8.548;2023-02-28T06:39:18;4.00;;;3.70;;
7571;SDS011;3827;49.928;8.548;2023-02-28T06:41:46;5.60;;;5.00;;
7571;SDS011;3827;49.928;8.548;2023-02-28T06:44:14;5.95;;;5.45;;
7571;SDS011;3827;49.928;8.548;2023-02-28T06:46:42;4.55;;;4.15;;
7571;SDS011;3827;49.928;8.548;2023-02-28T06:49:10;4.80;;;4.30;;
7571;SDS011;3827;49.928;8.548;2023-02-28T06:51:38;5.55;;;4.60;;
7571;SDS011;3827;49.928;8.548;2023-02-28T06:54:07;4.60;;;4.20;;
7571;SDS011;3827;49.928;8.548;2023-02-28T06:56:35;4.30;;;4.00;;
7571;SDS011;3827;49.928;8.548;2023-02-28T06:59:03;3.70;;;3.40;;
7571;SDS011;3827;49.928;8.548;2023-02-28T07:01:31;3.92;;;3.58;;
7571;SDS011;3827;49.928;8.548;2023-02-28T07:03:58;3.15;;;2.95;;
7571;SDS011;3827;49.928;8.548;2023-02-28T07:06:25;4.40;;;4.00;;
7571;SDS011;3827;49.928;8.548;2023-02-28T07:08:52;3.58;;;3.28;;
7571;SDS011;3827;49.928;8.548;2023-02-28T07:11:20;4.70;;;4.30;;
7571;SDS011;3827;49.928;8.548;2023-02-28T07:13:48;4.03;;;3.65;;
7571;SDS011;3827;49.928;8.548;2023-02-28T07:16:17;3.75;;;3.45;;
7571;SDS011;3827;49.928;8.548;2023-02-28T07:18:44;5.03;;;3.50;;
7571;SDS011;3827;49.928;8.548;2023-02-28T07:21:11;3.00;;;2.80;;
7571;SDS011;3827;49.928;8.548;2023-02-28T07:23:38;4.03;;;3.40;;
7571;SDS011;3827;49.928;8.548;2023-02-28T07:26:05;3.50;;;3.20;;
7571;SDS011;3827;49.928;8.548;2023-02-28T07:28:36;3.70;;;3.15;;
7571;SDS011;3827;49.928;8.548;2023-02-28T07:31:03;4.43;;;4.03;;
7571;SDS011;3827;49.928;8.548;2023-02-28T07:33:32;7.30;;;6.70;;
7571;SDS011;3827;49.928;8.548;2023-02-28T07:36:00;9.20;;;8.27;;
7571;SDS011;3827;49.928;8.548;2023-02-28T07:38:27;4.80;;;4.38;;
7571;SDS011;3827;49.928;8.548;2023-02-28T07:40:54;4.63;;;4.22;;
7571;SDS011;3827;49.928;8.548;2023-02-28T07:43:21;4.55;;;4.15;;
7571;SDS011;3827;49.928;8.548;2023-02-28T07:45:48;4.47;;;4.07;;
7571;SDS011;3827;49.928;8.548;2023-02-28T07:48:14;4.47;;;4.07;;
7571;SDS011;3827;49.928;8.548;2023-02-28T07:50:43;3.80;;;3.50;;
7571;SDS011;3827;49.928;8.548;2023-02-28T07:53:13;4.18;;;3.88;;
7571;SDS011;3827;49.928;8.548;2023-02-28T07:55:39;4.72;;;4.30;;
7571;SDS011;3827;49.928;8.548;2023-02-28T07:58:06;4.00;;;3.70;;
7571;SDS011;3827;49.928;8.548;2023-02-28T08:00:33;3.75;;;3.08;;
7571;SDS011;3827;49.928;8.548;2023-02-28T08:03:00;3.15;;;2.95;;
7571;SDS011;3827;49.928;8.548;2023-02-28T08:05:26;3.70;;;3.08;;
7571;SDS011;3827;49.928;8.548;2023-02-28T08:07:55;4.82;;;3.30;;
7571;SDS011;3827;49.928;8.548;2023-02-28T08:10:22;4.15;;;3.75;;
7571;SDS011;3827;49.928;8.548;2023-02-28T08:12:49;3.58;;;3.28;;
7571;SDS011;3827;49.928;8.548;2023-02-28T08:15:16;3.40;;;3.10;;
7571;SDS011;3827;49.928;8.548;2023-02-28T08:17:43;3.63;;;3.33;;
7571;SDS011;3827;49.928;8.548;2023-02-28T08:20:10;3.90;;;3.08;;
7571;SDS011;3827;49.928;8.548;2023-02-28T08:22:38;3.28;;;3.00;;
7571;SDS011;3827;49.928;8.548;2023-02-28T08:25:07;4.07;;;3.15;;
7571;SDS011;3827;49.928;8.548;2023-02-28T08:27:35;3.13;;;2.92;;
7571;SDS011;3827;49.928;8.548;2023-02-28T08:30:02;4.30;;;3.77;;
7571;SDS011;3827;49.928;8.548;2023-02-28T08:32:29;3.40;;;3.10;;
7571;SDS011;3827;49.928;8.548;2023-02-28T08:34:56;3.40;;;3.10;;
7571;SDS011;3827;49.928;8.548;2023-02-28T08:37:22;3.40;;;3.10;;
7571;SDS011;3827;49.928;8.548;2023-02-28T08:39:49;3.63;;;2.80;;
7571;SDS011;3827;49.928;8.548;2023-02-28T08:42:17;3.20;;;2.90;;
7571;SDS011;3827;49.928;8.548;2023-02-28T08:44:44;3.70;;;3.40;;
7571;SDS011;3827;49.928;8.548;2023-02-28T08:47:11;4.03;;;3.72;;
7571;SDS011;3827;49.928;8.548;2023-02-28T08:49:38;3.13;;;2.90;;
7571;SDS011;3827;49.928;8.548;2023-02-28T08:52:05;4.17;;;2.60;;
7571;SDS011;3827;49.928;8.548;2023-02-28T08:54:32;3.00;;;2.80;;
7571;SDS011;3827;49.928;8.548;2023-02-28T08:56:59;2.97;;;2.72;;
7571;SDS011;3827;49.928;8.548;2023-02-28T08:59:27;3.08;;;2.88;;
7571;SDS011;3827;49.928;8.548;2023-02-28T09:01:54;4.10;;;3.17;;
7571;SDS011;3827;49.928;8.548;2023-02-28T09:04:21;3.20;;;2.60;;
7571;SDS011;3827;49.928;8.548;2023-02-28T09:06:48;3.03;;;2.77;;
7571;SDS011;3827;49.928;8.548;2023-02-28T09:09:15;3.80;;;3.42;;
7571;SDS011;3827;49.928;8.548;2023-02-28T09:11:42;3.20;;;2.90;;
7571;SDS011;3827;49.928;8.548;2023-02-28T09:14:09;3.67;;;3.38;;
7571;SDS011;3827;49.928;8.548;2023-02-28T09:16:37;4.57;;;4.18;;
7571;SDS011;3827;49.928;8.548;2023-02-28T09:19:04;3.08;;;2.80;;
7571;SDS011;3827;49.928;8.548;2023-02-28T09:21:31;3.33;;;3.03;;
7571;SDS011;3827;49.928;8.548;2023-02-28T09:23:58;3.17;;;2.88;;
7571;SDS011;3827;49.928;8.548;2023-02-28T09:26:26;3.28;;;2.95;;
7571;SDS011;3827;49.928;8.548;2023-02-28T09:28:59;3.10;;;2.65;;
7571;SDS011;3827;49.928;8.548;2023-02-28T09:31:27;3.55;;;3.25;;
7571;SDS011;3827;49.928;8.548;2023-02-28T09:33:59;3.63;;;3.33;;
7571;SDS011;3827;49.928;8.548;2023-02-28T09:36:26;3.20;;;3.00;;
7571;SDS011;3827;49.928;8.548;2023-02-28T09:38:55;3.72;;;3.42;;
7571;SDS011;3827;49.928;8.548;2023-02-28T09:41:32;4.38;;;3.83;;
7571;SDS011;3827;49.928;8.548;2023-02-28T09:44:11;3.80;;;3.40;;
7571;SDS011;3827;49.928;8.548;2023-02-28T09:46:44;3.53;;;3.22;;
7571;SDS011;3827;49.928;8.548;2023-02-28T09:49:16;3.90;;;3.40;;
7571;SDS011;3827;49.928;8.548;2023-02-28T09:51:47;3.58;;;3.28;;
7571;SDS011;3827;49.928;8.548;2023-02-28T09:54:17;3.92;;;3.63;;
7571;SDS011;3827;49.928;8.548;2023-02-28T09:56:48;3.58;;;3.28;;
7571;SDS011;3827;49.928;8.548;2023-02-28T09:59:23;4.03;;;3.53;;
7571;SDS011;3827;49.928;8.548;2023-02-28T10:02:00;4.40;;;4.00;;
7571;SDS011;3827;49.928;8.548;2023-02-28T10:04:39;3.90;;;3.30;;
7571;SDS011;3827;49.928;8.548;2023-02-28T10:07:15;3.67;;;3.38;;
7571;SDS011;3827;49.928;8.548;2023-02-28T10:09:51;3.45;;;3.15;;
7571;SDS011;3827;49.928;8.548;2023-02-28T10:12:20;3.60;;;3.30;;
7571;SDS011;3827;49.928;8.548;2023-02-28T10:14:49;3.38;;;3.08;;
7571;SDS011;3827;49.928;8.548;2023-02-28T10:17:19;4.13;;;3.50;;
7571;SDS011;3827;49.928;8.548;2023-02-28T10:19:54;3.90;;;3.60;;
7571;SDS011;3827;49.928;8.548;2023-02-28T10:22:26;4.50;;;3.30;;
7571;SDS011;3827;49.928;8.548;2023-02-28T10:24:57;4.00;;;3.17;;
7571;SDS011;3827;49.928;8.548;2023-02-28T10:27:28;3.60;;;3.30;;
7571;SDS011;3827;49.928;8.548;2023-02-28T10:29:57;3.67;;;3.38;;
7571;SDS011;3827;49.928;8.548;2023-02-28T10:32:26;3.50;;;3.20;;
7571;SDS011;3827;49.928;8.548;2023-02-28T10:34:59;3.33;;;3.05;;
7571;SDS011;3827;49.928;8.548;2023-02-28T10:37:32;3.55;;;3.25;;
7571;SDS011;3827;49.928;8.548;2023-02-28T10:40:03;3.85;;;3.00;;
7571;SDS011;3827;49.928;8.548;2023-02-28T10:42:31;4.30;;;3.75;;
7571;SDS011;3827;49.928;8.548;2023-02-28T10:45:06;4.03;;;3.60;;
7571;SDS011;3827;49.928;8.548;2023-02-28T10:47:38;4.38;;;4.00;;
7571;SDS011;3827;49.928;8.548;2023-02-28T10:50:29;4.38;;;4.03;;
7571;SDS011;3827;49.928;8.548;2023-02-28T10:53:10;3.83;;;3.53;;
7571;SDS011;3827;49.928;8.548;2023-02-28T10:55:55;3.80;;;3.50;;
7571;SDS011;3827;49.928;8.548;2023-02-28T10:58:24;3.92;;;3.63;;
7571;SDS011;3827;49.928;8.548;2023-02-28T11:00:53;3.70;;;3.40;;
7571;SDS011;3827;49.928;8.548;2023-02-28T11:03:25;4.03;;;3.60;;
7571;SDS011;3827;49.928;8.548;2023-02-28T11:05:58;3.92;;;3.63;;
7571;SDS011;3827;49.928;8.548;2023-02-28T11:08:30;3.85;;;3.58;;
7571;SDS011;3827;49.928;8.548;2023-02-28T11:10:57;3.88;;;3.58;;
7571;SDS011;3827;49.928;8.548;2023-02-28T11:13:27;4.20;;;3.90;;
7571;SDS011;3827;49.928;8.548;2023-02-28T11:15:58;3.92;;;3.60;;
7571;SDS011;3827;49.928;8.548;2023-02-28T11:18:27;3.90;;;3.60;;
7571;SDS011;3827;49.928;8.548;2023-02-28T11:20:58;4.05;;;3.65;;
7571;SDS011;3827;49.928;8.548;2023-02-28T11:23:28;4.00;;;3.60;;
7571;SDS011;3827;49.928;8.548;2023-02-28T11:25:58;4.18;;;3.78;;
7571;SDS011;3827;49.928;8.548;2023-02-28T11:28:28;4.45;;;4.05;;
7571;SDS011;3827;49.928;8.548;2023-02-28T11:31:01;4.13;;;3.75;;
7571;SDS011;3827;49.928;8.548;2023-02-28T11:33:31;3.92;;;3.63;;
7571;SDS011;3827;49.928;8.548;2023-02-28T11:36:10;3.95;;;3.65;;
7571;SDS011;3827;49.928;8.548;2023-02-28T11:38:39;3.67;;;3.38;;
7571;SDS011;3827;49.928;8.548;2023-02-28T11:41:11;3.67;;;3.38;;
7571;SDS011;3827;49.928;8.548;2023-02-28T11:44:00;4.03;;;3.73;;
7571;SDS011;3827;49.928;8.548;2023-02-28T11:46:40;3.92;;;3.63;;
7571;SDS011;3827;49.928;8.548;2023-02-28T11:49:16;4.20;;;3.75;;
7571;SDS011;3827;49.928;8.548;2023-02-28T11:51:56;4.25;;;3.95;;
7571;SDS011;3827;49.928;8.548;2023-02-28T11:54:32;4.45;;;4.05;;
7571;SDS011;3827;49.928;8.548;2023-02-28T11:57:15;6.90;;;5.68;;
7571;SDS011;3827;49.928;8.548;2023-02-28T11:59:58;4.03;;;3.72;;
7571;SDS011;3827;49.928;8.548;2023-02-28T12:02:33;4.03;;;3.70;;
7571;SDS011;3827;49.928;8.548;2023-02-28T12:05:16;3.80;;;3.50;;
7571;SDS011;3827;49.928;8.548;2023-02-28T12:07:54;4.07;;;3.78;;
7571;SDS011;3827;49.928;8.548;2023-02-28T12:10:32;4.22;;;3.92;;
7571;SDS011;3827;49.928;8.548;2023-02-28T12:13:07;6.50;;;3.97;;
7571;SDS011;3827;49.928;8.548;2023-02-28T12:15:46;4.57;;;3.60;;
7571;SDS011;3827;49.928;8.548;2023-02-28T12:19:01;4.30;;;3.90;;
7571;SDS011;3827;49.928;8.548;2023-02-28T12:21:39;4.68;;;3.63;;
7571;SDS011;3827;49.928;8.548;2023-02-28T12:24:24;4.25;;;3.85;;
7571;SDS011;3827;49.928;8.548;2023-02-28T12:27:02;4.45;;;4.05;;
7571;SDS011;3827;49.928;8.548;2023-02-28T12:29:34;4.30;;;4.00;;
7571;SDS011;3827;49.928;8.548;2023-02-28T12:32:09;4.80;;;4.40;;
7571;SDS011;3827;49.928;8.548;2023-02-28T12:34:43;21.42;;;19.23;;
7571;SDS011;3827;49.928;8.548;2023-02-28T12:37:14;7.40;;;6.70;;
7571;SDS011;3827;49.928;8.548;2023-02-28T12:39:50;5.20;;;4.70;;
7571;SDS011;3827;49.928;8.548;2023-02-28T12:42:23;5.10;;;4.70;;
7571;SDS011;3827;49.928;8.548;2023-02-28T12:44:55;6.50;;;5.43;;
7571;SDS011;3827;49.928;8.548;2023-02-28T12:47:25;5.30;;;4.80;;
7571;SDS011;3827;49.928;8.548;2023-02-28T12:49:52;5.22;;;4.72;;
7571;SDS011;3827;49.928;8.548;2023-02-28T12:52:23;5.78;;;4.80;;
7571;SDS011;3827;49.928;8.548;2023-02-28T12:55:03;4.93;;;4.53;;
7571;SDS011;3827;49.928;8.548;2023-02-28T12:57:34;5.60;;;4.75;;
7571;SDS011;3827;49.928;8.548;2023-02-28T13:00:10;4.50;;;4.20;;
7571;SDS011;3827;49.928;8.548;2023-02-28T13:02:51;5.05;;;4.65;;
7571;SDS011;3827;49.928;8.548;2023-02-28T13:05:44;5.03;;;4.60;;
7571;SDS011;3827;49.928;8.548;2023-02-28T13:08:27;4.72;;;4.32;;
7571;SDS011;3827;49.928;8.548;2023-02-28T13:11:07;5.72;;;4.65;;
7571;SDS011;3827;49.928;8.548;2023-02-28T13:13:56;4.85;;;4.45;;
7571;SDS011;3827;49.928;8.548;2023-02-28T13:16:24;6.15;;;5.22;;
7571;SDS011;3827;49.928;8.548;2023-02-28T13:18:51;5.57;;;5.07;;
7571;SDS011;3827;49.928;8.548;2023-02-28T13:21:24;4.88;;;4.47;;
7571;SDS011;3827;49.928;8.548;2023-02-28T13:23:58;5.22;;;4.70;;
7571;SDS011;3827;49.928;8.548;2023-02-28T13:29:33;5.10;;;4.70;;
7571;SDS011;3827;49.928;8.548;2023-02-28T13:35:14;5.07;;;4.68;;
7571;SDS011;3827;49.928;8.548;2023-02-28T13:38:09;5.82;;;5.35;;
7571;SDS011;3827;49.928;8.548;2023-02-28T13:40:42;5.82;;;5.32;;
7571;SDS011;3827;49.928;8.548;2023-02-28T13:43:09;5.35;;;4.93;;
7571;SDS011;3827;49.928;8.548;2023-02-28T13:45:37;5.17;;;4.70;;
7571;SDS011;3827;49.928;8.548;2023-02-28T13:50:52;5.63;;;5.22;;
7571;SDS011;3827;49.928;8.548;2023-02-28T13:53:31;5.82;;;5.43;;
7571;SDS011;3827;49.928;8.548;2023-02-28T13:56:20;5.30;;;4.80;;
7571;SDS011;3827;49.928;8.548;2023-02-28T13:59:04;5.25;;;4.85;;
7571;SDS011;3827;49.928;8.548;2023-02-28T14:01:52;5.75;;;5.25;;
7571;SDS011;3827;49.928;8.548;2023-02-28T14:07:18;5.60;;;5.10;;
7571;SDS011;3827;49.928;8.548;2023-02-28T14:09:49;5.70;;;5.20;;
7571;SDS011;3827;49.928;8.548;2023-02-28T14:12:51;5.37;;;4.87;;
7571;SDS011;3827;49.928;8.548;2023-02-28T14:15:37;5.38;;;4.97;;
7571;SDS011;3827;49.928;8.548;2023-02-28T14:18:21;5.35;;;4.90;;
7571;SDS011;3827;49.928;8.548;2023-02-28T14:20:55;5.40;;;5.00;;
7571;SDS011;3827;49.928;8.548;2023-02-28T14:23:36;5.50;;;5.00;;
7571;SDS011;3827;49.928;8.548;2023-02-28T14:26:26;5.22;;;4.72;;
7571;SDS011;3827;49.928;8.548;2023-02-28T14:29:07;5.20;;;4.80;;
7571;SDS011;3827;49.928;8.548;2023-02-28T14:31:48;5.53;;;5.13;;
7571;SDS011;3827;49.928;8.548;2023-02-28T14:34:29;5.45;;;4.95;;
7571;SDS011;3827;49.928;8.548;2023-02-28T14:37:03;5.40;;;4.90;;
7571;SDS011;3827;49.928;8.548;2023-02-28T14:39:33;5.55;;;5.05;;
7571;SDS011;3827;49.928;8.548;2023-02-28T14:42:02;6.65;;;5.97;;
7571;SDS011;3827;49.928;8.548;2023-02-28T14:44:30;5.25;;;4.85;;
7571;SDS011;3827;49.928;8.548;2023-02-28T14:46:57;5.10;;;4.60;;
7571;SDS011;3827;49.928;8.548;2023-02-28T14:49:31;5.22;;;4.82;;
7571;SDS011;3827;49.928;8.548;2023-02-28T14:52:02;5.20;;;4.70;;
7571;SDS011;3827;49.928;8.548;2023-02-28T14:54:34;6.63;;;6.03;;
7571;SDS011;3827;49.928;8.548;2023-02-28T14:57:01;5.63;;;5.03;;
7571;SDS011;3827;49.928;8.548;2023-02-28T14:59:29;6.07;;;5.47;;
7571;SDS011;3827;49.928;8.548;2023-02-28T15:02:18;5.65;;;5.15;;
7571;SDS011;3827;49.928;8.548;2023-02-28T15:04:57;6.60;;;6.10;;
7571;SDS011;3827;49.928;8.548;2023-02-28T15:07:26;6.00;;;5.50;;
7571;SDS011;3827;49.928;8.548;2023-02-28T15:10:16;5.65;;;5.20;;
7571;SDS011;3827;49.928;8.548;2023-02-28T15:12:46;5.75;;;5.15;;
7571;SDS011;3827;49.928;8.548;2023-02-28T15:15:18;5.47;;;5.05;;
7571;SDS011;3827;49.928;8.548;2023-02-28T15:17:48;5.70;;;5.20;;
7571;SDS011;3827;49.928;8.548;2023-02-28T15:20:20;5.60;;;5.10;;
7571;SDS011;3827;49.928;8.548;2023-02-28T15:22:47;5.50;;;5.00;;
7571;SDS011;3827;49.928;8.548;2023-02-28T15:25:18;5.10;;;4.70;;
7571;SDS011;3827;49.928;8.548;2023-02-28T15:27:47;5.57;;;5.07;;
7571;SDS011;3827;49.928;8.548;2023-02-28T15:30:16;5.63;;;5.18;;
7571;SDS011;3827;49.928;8.548;2023-02-28T15:32:45;5.65;;;5.15;;
7571;SDS011;3827;49.928;8.548;2023-02-28T15:35:31;5.43;;;4.95;;
7571;SDS011;3827;49.928;8.548;2023-02-28T15:38:00;4.80;;;4.40;;
7571;SDS011;3827;49.928;8.548;2023-02-28T15:40:30;5.10;;;4.70;;
7571;SDS011;3827;49.928;8.548;2023-02-28T15:43:05;4.90;;;4.50;;
7571;SDS011;3827;49.928;8.548;2023-02-28T15:45:33;5.40;;;4.90;;
7571;SDS011;3827;49.928;8.548;2023-02-28T15:48:03;4.75;;;4.35;;
7571;SDS011;3827;49.928;8.548;2023-02-28T15:50:33;5.23;;;4.80;;
7571;SDS011;3827;49.928;8.548;2023-02-28T15:53:00;5.70;;;5.10;;
7571;SDS011;3827;49.928;8.548;2023-02-28T15:55:29;4.93;;;4.53;;
7571;SDS011;3827;49.928;8.548;2023-02-28T15:57:57;5.00;;;4.60;;
7571;SDS011;3827;49.928;8.548;2023-02-28T16:00:27;5.40;;;4.90;;